createdAt,value
2023-04-08T00:00:47.376Z,32.90
2023-04-08T00:03:14.226Z,32.90
2023-04-08T00:05:41.320Z,32.90
2023-04-08T00:08:08.363Z,32.80
2023-04-08T00:10:36.487Z,32.90
2023-04-08T00:13:03.262Z,32.90
2023-04-08T00:15:30.304Z,32.90
2023-04-08T00:17:57.239Z,32.90
2023-04-08T00:20:24.562Z,32.80
2023-04-08T00:22:51.341Z,32.90
2023-04-08T00:25:18.121Z,32.90
2023-04-08T00:27:44.905Z,32.90
2023-04-08T00:30:11.798Z,32.90
2023-04-08T00:32:38.670Z,32.90
2023-04-08T00:35:06.085Z,32.90
2023-04-08T00:37:32.933Z,33.00
2023-04-08T00:39:59.745Z,32.90
2023-04-08T00:42:26.960Z,32.90
2023-04-08T00:44:53.835Z,32.90
2023-04-08T00:47:20.833Z,32.90
2023-04-08T00:49:47.674Z,32.90
2023-04-08T00:52:14.477Z,32.90
2023-04-08T00:54:42.010Z,32.80
2023-04-08T00:57:09.011Z,32.80
2023-04-08T00:59:36.172Z,32.80
2023-04-08T01:02:36.732Z,32.70
2023-04-08T01:05:28.742Z,32.70
2023-04-08T01:07:56.359Z,32.60
2023-04-08T01:10:31.337Z,32.60
2023-04-08T01:13:03.543Z,32.60
2023-04-08T01:15:31.573Z,32.50
2023-04-08T01:18:00.525Z,32.50
2023-04-08T01:20:29.639Z,32.50
2023-04-08T01:23:23.064Z,32.50
2023-04-08T01:25:59.252Z,32.50
2023-04-08T01:28:29.749Z,32.40
2023-04-08T01:30:59.274Z,32.40
2023-04-08T01:33:28.330Z,32.30
2023-04-08T01:35:57.399Z,32.30
2023-04-08T01:38:26.532Z,32.30
2023-04-08T01:40:54.876Z,32.20
2023-04-08T01:43:22.086Z,32.20
2023-04-08T01:45:50.283Z,32.20
2023-04-08T01:48:17.461Z,32.10
2023-04-08T01:50:46.378Z,32.20
2023-04-08T01:53:13.327Z,32.30
2023-04-08T01:55:42.931Z,32.30
2023-04-08T01:58:15.344Z,32.30
2023-04-08T02:00:43.593Z,32.40
2023-04-08T02:03:13.186Z,32.40
2023-04-08T02:05:40.892Z,32.50
2023-04-08T02:08:07.791Z,32.40
2023-04-08T02:10:35.006Z,32.50
2023-04-08T02:13:03.365Z,32.50
2023-04-08T02:15:36.204Z,32.50
2023-04-08T02:18:15.481Z,32.50
2023-04-08T02:20:47.706Z,32.40
2023-04-08T02:23:21.677Z,32.40
2023-04-08T02:25:50.459Z,32.30
2023-04-08T02:28:19.646Z,32.30
2023-04-08T02:30:51.446Z,32.20
2023-04-08T02:33:22.001Z,32.10
2023-04-08T02:35:51.438Z,32.00
2023-04-08T02:38:18.339Z,32.00
2023-04-08T02:40:45.133Z,32.00
2023-04-08T02:43:12.266Z,32.00
2023-04-08T02:45:41.978Z,31.90
2023-04-08T02:48:08.935Z,32.00
2023-04-08T02:50:35.976Z,31.90
2023-04-08T02:53:03.331Z,31.90
2023-04-08T02:55:30.248Z,31.90
2023-04-08T02:57:57.052Z,31.90
2023-04-08T03:00:24.112Z,31.90
2023-04-08T03:02:51.175Z,31.80
2023-04-08T03:05:18.428Z,31.80
2023-04-08T03:07:45.325Z,31.80
2023-04-08T03:10:12.445Z,31.70
2023-04-08T03:12:39.362Z,31.70
2023-04-08T03:15:07.297Z,31.70
2023-04-08T03:17:34.727Z,31.60
2023-04-08T03:20:04.910Z,31.60
2023-04-08T03:22:32.175Z,31.70
2023-04-08T03:24:59.158Z,31.70
2023-04-08T03:27:26.165Z,31.70
2023-04-08T03:29:53.124Z,31.70
2023-04-08T03:32:20.303Z,31.80
2023-04-08T03:34:47.105Z,31.70
2023-04-08T03:37:13.899Z,31.80
2023-04-08T03:39:40.632Z,31.80
2023-04-08T03:42:08.253Z,31.80
2023-04-08T03:44:35.094Z,31.80
2023-04-08T03:47:01.816Z,31.70
2023-04-08T03:49:29.001Z,31.60
2023-04-08T03:51:55.910Z,31.60
2023-04-08T03:54:22.618Z,31.60
2023-04-08T03:56:50.801Z,31.50
2023-04-08T03:59:17.562Z,31.40
2023-04-08T04:01:45.308Z,31.30
2023-04-08T04:04:12.258Z,31.20
2023-04-08T04:06:39.270Z,31.20
2023-04-08T04:09:06.004Z,31.10
2023-04-08T04:11:34.666Z,31.10
2023-04-08T04:14:01.795Z,31.00
2023-04-08T04:16:30.348Z,31.00
2023-04-08T04:18:59.621Z,31.00
2023-04-08T04:21:27.108Z,31.00
2023-04-08T04:23:54.843Z,31.10
2023-04-08T04:26:21.599Z,31.20
2023-04-08T04:28:48.810Z,31.40
2023-04-08T04:31:23.606Z,31.50
2023-04-08T04:33:50.532Z,31.70
2023-04-08T04:36:17.337Z,31.80
2023-04-08T04:38:44.522Z,31.80
2023-04-08T04:41:11.680Z,31.90
2023-04-08T04:43:38.633Z,32.10
2023-04-08T04:46:08.804Z,32.20
2023-04-08T04:48:36.061Z,32.30
2023-04-08T04:51:03.401Z,32.50
2023-04-08T04:53:31.594Z,32.60
2023-04-08T04:55:58.695Z,32.90
2023-04-08T04:58:25.467Z,33.00
2023-04-08T05:00:52.383Z,33.20
2023-04-08T05:03:19.324Z,33.30
2023-04-08T05:05:51.548Z,33.50
2023-04-08T05:08:18.437Z,33.50
2023-04-08T05:10:45.867Z,33.70
2023-04-08T05:13:12.890Z,33.80
2023-04-08T05:15:39.621Z,33.90
2023-04-08T05:18:06.638Z,34.00
2023-04-08T05:20:33.466Z,33.90
2023-04-08T05:23:00.214Z,33.90
2023-04-08T05:25:26.975Z,33.90
2023-04-08T05:27:53.813Z,34.00
2023-04-08T05:30:21.086Z,34.00
2023-04-08T05:32:48.031Z,34.00
2023-04-08T05:35:14.810Z,34.00
2023-04-08T05:37:41.832Z,33.90
2023-04-08T05:40:09.047Z,33.90
2023-04-08T05:42:36.044Z,33.90
2023-04-08T05:45:02.947Z,33.80
2023-04-08T05:47:30.002Z,33.80
2023-04-08T05:49:57.027Z,33.80
2023-04-08T05:52:23.878Z,33.70
2023-04-08T05:54:50.697Z,33.70
2023-04-08T05:57:17.889Z,33.60
2023-04-08T05:59:44.650Z,33.70
2023-04-08T06:02:11.525Z,33.70
2023-04-08T06:04:38.506Z,33.70
2023-04-08T06:07:06.508Z,33.70
2023-04-08T06:09:37.029Z,33.80
2023-04-08T06:12:04.095Z,33.90
2023-04-08T06:14:30.901Z,33.90
2023-04-08T06:16:58.046Z,34.10
2023-04-08T06:19:25.332Z,34.10
2023-04-08T06:21:52.127Z,34.20
2023-04-08T06:24:18.850Z,34.20
2023-04-08T06:26:45.591Z,34.20
2023-04-08T06:29:12.345Z,34.20
2023-04-08T06:31:39.172Z,34.20
2023-04-08T06:34:06.161Z,34.10
2023-04-08T06:36:33.015Z,34.10
2023-04-08T06:39:00.421Z,34.10
2023-04-08T06:41:27.239Z,34.10
2023-04-08T06:43:54.004Z,34.10
2023-04-08T06:46:20.952Z,34.10
2023-04-08T06:48:48.546Z,34.10
2023-04-08T06:51:15.758Z,34.20
2023-04-08T06:53:42.568Z,34.30
2023-04-08T06:56:09.416Z,34.40
2023-04-08T06:58:36.222Z,34.50
2023-04-08T07:01:03.403Z,34.70
2023-04-08T07:03:30.754Z,34.70
2023-04-08T07:05:57.703Z,34.90
2023-04-08T07:08:24.466Z,34.90
2023-04-08T07:10:52.758Z,35.00
2023-04-08T07:13:19.530Z,35.10
2023-04-08T07:15:46.811Z,35.00
2023-04-08T07:18:13.557Z,35.00
2023-04-08T07:20:41.867Z,35.00
2023-04-08T07:23:08.738Z,34.90
2023-04-08T07:25:36.507Z,35.00
2023-04-08T07:28:03.475Z,35.00
2023-04-08T07:30:30.590Z,35.00
2023-04-08T07:32:59.337Z,35.00
2023-04-08T07:35:29.416Z,35.00
2023-04-08T07:37:57.843Z,35.00
2023-04-08T07:40:25.140Z,35.10
2023-04-08T07:42:52.044Z,35.10
2023-04-08T07:45:18.911Z,35.20
2023-04-08T07:47:46.149Z,35.30
2023-04-08T07:50:13.436Z,35.40
2023-04-08T07:52:40.211Z,35.60
2023-04-08T07:55:07.543Z,35.70
2023-04-08T07:57:34.816Z,35.80
2023-04-08T08:00:01.834Z,35.80
2023-04-08T08:02:29.358Z,35.80
2023-04-08T08:04:56.875Z,35.70
2023-04-08T08:07:24.075Z,35.70
2023-04-08T08:09:51.124Z,35.70
2023-04-08T08:12:17.913Z,35.70
2023-04-08T08:14:44.746Z,35.70
2023-04-08T08:17:12.747Z,35.70
2023-04-08T08:19:39.652Z,35.60
2023-04-08T08:22:06.442Z,35.50
2023-04-08T08:24:33.233Z,35.60
2023-04-08T08:27:01.240Z,35.50
2023-04-08T08:29:28.703Z,35.70
2023-04-08T08:31:55.457Z,35.80
2023-04-08T08:34:22.241Z,35.80
2023-04-08T08:36:49.060Z,35.90
2023-04-08T08:39:16.130Z,35.90
2023-04-08T08:41:43.071Z,36.00
2023-04-08T08:44:10.417Z,36.10
2023-04-08T08:46:37.330Z,36.10
2023-04-08T08:49:04.637Z,36.20
2023-04-08T08:51:32.705Z,36.20
2023-04-08T08:54:03.004Z,36.10
2023-04-08T08:56:29.957Z,36.20
2023-04-08T08:58:57.774Z,36.10
2023-04-08T09:01:35.675Z,36.10
2023-04-08T09:04:29.043Z,36.00
2023-04-08T09:07:13.866Z,36.00
2023-04-08T09:09:51.159Z,36.10
2023-04-08T09:12:18.384Z,36.00
2023-04-08T09:14:45.342Z,35.90
2023-04-08T09:17:12.298Z,36.00
2023-04-08T09:19:39.389Z,35.90
2023-04-08T09:22:08.429Z,35.80
2023-04-08T09:24:37.052Z,35.80
2023-04-08T09:27:05.649Z,35.80
2023-04-08T09:29:36.402Z,35.80
2023-04-08T09:32:08.877Z,35.80
2023-04-08T09:34:35.736Z,35.90
2023-04-08T09:37:02.724Z,35.90
2023-04-08T09:39:30.611Z,35.90
2023-04-08T09:42:01.490Z,35.80
2023-04-08T09:44:30.418Z,35.80
2023-04-08T09:47:09.973Z,35.90
2023-04-08T09:49:51.285Z,35.90
2023-04-08T09:52:30.551Z,35.80
2023-04-08T09:55:05.131Z,35.90
2023-04-08T09:57:54.170Z,35.80
2023-04-08T10:00:24.659Z,35.70
2023-04-08T10:03:48.909Z,35.80
2023-04-08T10:06:17.500Z,35.70
2023-04-08T10:08:47.376Z,35.60
2023-04-08T10:11:17.579Z,35.60
2023-04-08T10:13:44.708Z,35.50
2023-04-08T10:16:22.189Z,35.50
2023-04-08T10:18:52.829Z,35.50
2023-04-08T10:21:35.286Z,35.50
2023-04-08T10:24:06.439Z,35.40
2023-04-08T10:26:39.273Z,35.40
2023-04-08T10:29:18.379Z,35.40
2023-04-08T10:31:46.856Z,35.40
2023-04-08T10:34:21.226Z,35.30
2023-04-08T10:36:48.820Z,35.30
2023-04-08T10:39:16.413Z,35.20
2023-04-08T10:41:44.524Z,35.20
2023-04-08T10:44:29.750Z,35.20
2023-04-08T10:46:56.711Z,35.20
2023-04-08T10:49:32.055Z,35.20
2023-04-08T10:51:58.827Z,35.30
2023-04-08T10:54:27.125Z,35.20
2023-04-08T10:56:54.724Z,35.20
2023-04-08T10:59:32.800Z,35.30
2023-04-08T11:02:01.410Z,35.40
2023-04-08T11:04:36.308Z,35.40
2023-04-08T11:07:06.158Z,35.40
2023-04-08T11:09:34.462Z,35.50
2023-04-08T11:12:02.013Z,35.60
2023-04-08T11:14:29.105Z,35.80
2023-04-08T11:16:55.881Z,35.80
2023-04-08T11:19:23.142Z,35.80
2023-04-08T11:21:51.589Z,35.80
2023-04-08T11:24:18.770Z,35.80
2023-04-08T11:26:45.838Z,36.40
2023-04-08T11:29:15.853Z,35.70
2023-04-08T11:31:44.201Z,35.70
2023-04-08T11:34:11.283Z,35.70
2023-04-08T11:36:41.569Z,35.60
2023-04-08T11:39:10.391Z,35.60
2023-04-08T11:41:39.342Z,35.60
2023-04-08T11:44:09.229Z,35.50
2023-04-08T11:46:36.524Z,35.60
2023-04-08T11:49:08.523Z,35.70
2023-04-08T11:51:53.501Z,35.70
2023-04-08T11:54:28.803Z,35.80
2023-04-08T11:56:56.142Z,35.80
2023-04-08T11:59:22.911Z,35.80
2023-04-08T12:01:49.818Z,35.80
2023-04-08T12:04:16.843Z,35.80
2023-04-08T12:06:46.801Z,35.90
2023-04-08T12:09:14.055Z,35.90
2023-04-08T12:11:40.789Z,35.90
2023-04-08T12:14:07.654Z,35.80
2023-04-08T12:16:34.862Z,35.80
2023-04-08T12:19:01.852Z,35.80
2023-04-08T12:21:28.763Z,35.70
2023-04-08T12:23:55.537Z,35.70
2023-04-08T12:26:22.313Z,35.60
2023-04-08T12:28:49.023Z,35.60
2023-04-08T12:31:15.786Z,35.70
2023-04-08T12:33:42.640Z,35.80
2023-04-08T12:36:10.514Z,35.80
2023-04-08T12:38:39.041Z,36.00
2023-04-08T12:41:06.549Z,36.10
2023-04-08T12:43:34.497Z,36.20
2023-04-08T12:46:01.981Z,36.30
2023-04-08T12:48:29.016Z,36.30
2023-04-08T12:50:56.240Z,36.40
2023-04-08T12:53:22.970Z,36.30
2023-04-08T12:55:51.398Z,36.20
2023-04-08T12:58:19.092Z,36.20
2023-04-08T13:00:47.376Z,36.20
2023-04-08T13:03:17.391Z,36.00
2023-04-08T13:05:44.651Z,35.90
2023-04-08T13:08:12.355Z,35.80
2023-04-08T13:10:39.419Z,35.80
2023-04-08T13:13:06.683Z,35.90
2023-04-08T13:15:34.224Z,36.00
2023-04-08T13:18:01.259Z,36.00
2023-04-08T13:20:28.244Z,35.90
2023-04-08T13:22:55.162Z,36.50
2023-04-08T13:25:22.114Z,35.80
2023-04-08T13:27:49.009Z,35.80
2023-04-08T13:30:15.874Z,35.90
2023-04-08T13:32:42.698Z,35.90
2023-04-08T13:35:09.696Z,35.90
2023-04-08T13:37:36.751Z,35.90
2023-04-08T13:40:04.101Z,36.10
2023-04-08T13:42:34.169Z,36.20
2023-04-08T13:45:01.400Z,36.20
2023-04-08T13:47:28.525Z,36.10
2023-04-08T13:49:55.639Z,36.00
2023-04-08T13:52:22.386Z,35.90
2023-04-08T13:54:49.275Z,35.80
2023-04-08T13:57:16.169Z,35.70
2023-04-08T13:59:44.577Z,35.70
2023-04-08T14:02:12.897Z,35.80
2023-04-08T14:04:40.070Z,35.80
2023-04-08T14:07:07.088Z,35.90
2023-04-08T14:09:33.891Z,36.00
2023-04-08T14:12:00.670Z,35.80
2023-04-08T14:14:27.436Z,35.90
2023-04-08T14:16:54.271Z,35.70
2023-04-08T14:19:21.272Z,35.70
2023-04-08T14:21:48.174Z,35.70
2023-04-08T14:24:15.568Z,36.30
2023-04-08T14:26:42.540Z,35.50
2023-04-08T14:29:09.341Z,35.50
2023-04-08T14:31:36.553Z,35.40
2023-04-08T14:34:03.641Z,35.30
2023-04-08T14:36:31.576Z,35.30
2023-04-08T14:38:58.855Z,35.30
2023-04-08T14:41:28.301Z,35.20
2023-04-08T14:43:55.250Z,35.30
2023-04-08T14:46:22.214Z,35.30
2023-04-08T14:48:49.469Z,35.40
2023-04-08T14:51:16.573Z,35.40
2023-04-08T14:53:43.527Z,35.40
2023-04-08T14:56:10.359Z,35.50
2023-04-08T14:58:37.239Z,35.50
2023-04-08T15:01:04.441Z,35.40
2023-04-08T15:03:31.247Z,35.40
2023-04-08T15:05:58.865Z,35.50
2023-04-08T15:08:25.741Z,35.40
2023-04-08T15:10:53.165Z,35.40
2023-04-08T15:13:19.906Z,35.20
2023-04-08T15:15:47.654Z,35.20
2023-04-08T15:18:14.422Z,35.20
2023-04-08T15:20:42.428Z,35.10
2023-04-08T15:23:09.270Z,35.20
2023-04-08T15:25:38.777Z,35.20
2023-04-08T15:28:05.912Z,35.30
2023-04-08T15:30:35.419Z,35.20
2023-04-08T15:33:05.632Z,35.30
2023-04-08T15:35:32.932Z,35.40
2023-04-08T15:38:00.660Z,35.50
2023-04-08T15:40:27.702Z,35.50
2023-04-08T15:42:54.538Z,35.60
2023-04-08T15:45:22.215Z,35.60
2023-04-08T15:47:49.227Z,35.70
2023-04-08T15:50:17.242Z,35.70
2023-04-08T15:52:44.435Z,35.80
2023-04-08T15:55:11.359Z,35.90
2023-04-08T15:57:38.535Z,36.00
2023-04-08T16:00:10.253Z,36.80
2023-04-08T16:02:37.265Z,36.00
2023-04-08T16:05:04.419Z,36.10
2023-04-08T16:07:31.358Z,36.00
2023-04-08T16:09:58.989Z,36.00
2023-04-08T16:12:25.896Z,35.80
2023-04-08T16:14:52.649Z,35.70
2023-04-08T16:17:19.417Z,35.60
2023-04-08T16:19:47.216Z,35.40
2023-04-08T16:22:14.308Z,35.20
2023-04-08T16:24:41.756Z,35.00
2023-04-08T16:27:08.690Z,35.00
2023-04-08T16:29:35.559Z,34.90
2023-04-08T16:32:02.337Z,34.80
2023-04-08T16:34:29.183Z,34.70
2023-04-08T16:36:56.274Z,34.50
2023-04-08T16:39:23.008Z,34.40
2023-04-08T16:41:49.727Z,34.40
2023-04-08T16:44:16.449Z,34.40
2023-04-08T16:46:43.353Z,34.30
2023-04-08T16:49:11.734Z,34.50
2023-04-08T16:51:40.663Z,34.50
2023-04-08T16:54:10.460Z,34.50
2023-04-08T16:56:37.260Z,34.60
2023-04-08T16:59:04.142Z,34.50
2023-04-08T17:01:31.549Z,34.40
2023-04-08T17:03:58.576Z,34.50
2023-04-08T17:06:27.061Z,34.40
2023-04-08T17:08:55.203Z,34.40
2023-04-08T17:11:22.044Z,34.60
2023-04-08T17:13:49.761Z,34.60
2023-04-08T17:16:18.199Z,34.70
2023-04-08T17:18:45.782Z,34.60
2023-04-08T17:21:13.948Z,34.70
2023-04-08T17:23:40.895Z,34.90
2023-04-08T17:26:08.848Z,35.00
2023-04-08T17:28:36.108Z,35.10
2023-04-08T17:31:03.323Z,35.10
2023-04-08T17:33:30.265Z,35.10
2023-04-08T17:35:57.516Z,35.10
2023-04-08T17:38:24.310Z,35.10
2023-04-08T17:40:51.868Z,35.10
2023-04-08T17:43:18.619Z,35.10
2023-04-08T17:45:46.771Z,35.20
2023-04-08T17:48:13.748Z,35.20
2023-04-08T17:50:40.849Z,35.20
2023-04-08T17:53:07.590Z,35.20
2023-04-08T17:55:34.315Z,35.10
2023-04-08T17:58:01.338Z,35.10
2023-04-08T18:00:28.834Z,35.00
2023-04-08T18:02:56.087Z,35.00
2023-04-08T18:05:23.462Z,35.00
2023-04-08T18:07:51.073Z,34.90
2023-04-08T18:10:18.508Z,34.80
2023-04-08T18:12:45.942Z,34.80
2023-04-08T18:15:13.146Z,34.70
2023-04-08T18:17:40.495Z,34.60
2023-04-08T18:20:07.931Z,34.70
2023-04-08T18:22:35.342Z,34.70
2023-04-08T18:25:02.613Z,34.70
2023-04-08T18:27:29.567Z,34.70
2023-04-08T18:29:56.470Z,34.80
2023-04-08T18:32:23.502Z,34.80
2023-04-08T18:34:54.371Z,34.90
2023-04-08T18:37:21.655Z,34.90
2023-04-08T18:39:48.860Z,34.90
2023-04-08T18:42:16.135Z,34.90
2023-04-08T18:44:43.078Z,34.90
2023-04-08T18:47:11.063Z,34.80
2023-04-08T18:49:38.600Z,34.80
2023-04-08T18:52:06.623Z,34.70
2023-04-08T18:54:33.386Z,34.60
2023-04-08T18:57:00.241Z,34.60
2023-04-08T18:59:30.291Z,34.60
2023-04-08T19:01:57.636Z,34.60
2023-04-08T19:04:24.623Z,34.70
2023-04-08T19:06:51.737Z,34.60
2023-04-08T19:09:19.137Z,34.60
2023-04-08T19:11:46.081Z,34.60
2023-04-08T19:14:12.914Z,34.60
2023-04-08T19:16:41.610Z,34.70
2023-04-08T19:19:08.972Z,34.70
2023-04-08T19:21:37.734Z,34.80
2023-04-08T19:24:06.443Z,34.90
2023-04-08T19:26:34.166Z,34.90
2023-04-08T19:29:01.336Z,34.90
2023-04-08T19:31:28.634Z,35.00
2023-04-08T19:33:55.824Z,35.00
2023-04-08T19:36:22.985Z,35.10
2023-04-08T19:38:49.757Z,35.20
2023-04-08T19:41:16.670Z,35.40
2023-04-08T19:43:43.453Z,35.50
2023-04-08T19:46:10.316Z,35.60
2023-04-08T19:48:37.124Z,35.70
2023-04-08T19:51:04.373Z,35.90
2023-04-08T19:53:31.200Z,36.00
2023-04-08T19:56:03.653Z,36.10
2023-04-08T19:58:30.449Z,36.20
2023-04-08T20:00:57.255Z,36.20
2023-04-08T20:03:24.745Z,36.30
2023-04-08T20:05:52.475Z,36.30
2023-04-08T20:08:19.427Z,36.30
2023-04-08T20:10:46.589Z,36.30
2023-04-08T20:13:14.573Z,36.30
2023-04-08T20:15:41.554Z,36.30
2023-04-08T20:18:08.455Z,36.40
2023-04-08T20:20:35.309Z,36.30
2023-04-08T20:23:02.179Z,36.20
2023-04-08T20:25:29.083Z,36.20
2023-04-08T20:27:56.039Z,36.30
2023-04-08T20:30:22.853Z,36.10
2023-04-08T20:32:49.748Z,36.10
2023-04-08T20:35:16.693Z,36.10
2023-04-08T20:37:43.453Z,36.10
2023-04-08T20:40:10.573Z,36.10
2023-04-08T20:42:38.553Z,36.10
2023-04-08T20:45:06.513Z,36.10
2023-04-08T20:47:33.850Z,36.10
2023-04-08T20:50:00.981Z,36.00
2023-04-08T20:52:27.773Z,35.80
2023-04-08T20:54:54.630Z,35.80
2023-04-08T20:57:21.361Z,35.70
2023-04-08T20:59:48.232Z,35.70
2023-04-08T21:02:16.136Z,35.60
2023-04-08T21:04:43.872Z,35.60
2023-04-08T21:07:11.066Z,35.60
2023-04-08T21:09:38.054Z,35.60
2023-04-08T21:12:04.824Z,35.60
2023-04-08T21:14:32.043Z,35.70
2023-04-08T21:16:58.837Z,35.70
2023-04-08T21:19:25.621Z,35.80
2023-04-08T21:21:52.477Z,36.50
2023-04-08T21:24:19.185Z,35.80
2023-04-08T21:26:46.008Z,35.80
2023-04-08T21:29:12.785Z,35.80
2023-04-08T21:31:40.961Z,35.80
2023-04-08T21:34:07.992Z,35.80
2023-04-08T21:36:34.780Z,35.80
2023-04-08T21:39:02.265Z,35.80
2023-04-08T21:41:30.596Z,35.90
2023-04-08T21:43:57.762Z,36.00
2023-04-08T21:46:24.576Z,36.00
2023-04-08T21:48:52.313Z,36.00
2023-04-08T21:51:19.801Z,36.10
2023-04-08T21:53:46.637Z,36.10
2023-04-08T21:56:13.965Z,36.00
2023-04-08T21:58:41.090Z,36.00
2023-04-08T22:01:08.204Z,36.00
2023-04-08T22:03:35.188Z,36.00
2023-04-08T22:06:02.086Z,36.00
2023-04-08T22:08:29.011Z,36.00
2023-04-08T22:10:56.008Z,36.00
2023-04-08T22:13:22.803Z,36.00
2023-04-08T22:15:49.660Z,36.00
2023-04-08T22:18:16.392Z,36.10
2023-04-08T22:20:43.360Z,36.10
2023-04-08T22:23:10.432Z,36.10
2023-04-08T22:25:37.181Z,36.10
2023-04-08T22:28:03.946Z,36.10
2023-04-08T22:30:31.121Z,36.10
2023-04-08T22:32:58.163Z,36.00
2023-04-08T22:35:24.986Z,36.00
2023-04-08T22:37:51.763Z,36.10
2023-04-08T22:40:18.525Z,36.00
2023-04-08T22:42:45.323Z,36.00
2023-04-08T22:45:12.150Z,36.00
2023-04-08T22:47:38.940Z,36.40
2023-04-08T22:50:06.439Z,36.00
2023-04-08T22:52:33.244Z,36.00
2023-04-08T22:55:00.007Z,36.00
2023-04-08T22:57:27.429Z,36.00
2023-04-08T22:59:54.207Z,35.90
2023-04-08T23:02:21.079Z,36.00
2023-04-08T23:04:47.930Z,36.00
2023-04-08T23:07:14.693Z,36.10
2023-04-08T23:09:41.485Z,36.10
2023-04-08T23:12:08.245Z,36.20
2023-04-08T23:14:35.004Z,36.20
2023-04-08T23:17:04.229Z,36.20
2023-04-08T23:19:32.190Z,36.20
2023-04-08T23:21:59.494Z,36.30
2023-04-08T23:24:26.344Z,36.20
2023-04-08T23:26:53.066Z,36.30
2023-04-08T23:29:19.829Z,36.30
2023-04-08T23:31:46.566Z,36.30
2023-04-08T23:34:13.350Z,36.30
2023-04-08T23:36:40.220Z,36.30
2023-04-08T23:39:07.007Z,36.30
2023-04-08T23:41:34.157Z,36.20
2023-04-08T23:44:00.945Z,36.20
2023-04-08T23:46:27.788Z,36.20
2023-04-08T23:48:54.726Z,36.20
2023-04-08T23:51:21.711Z,36.20
2023-04-08T23:53:48.607Z,36.20
2023-04-08T23:56:15.357Z,36.20
2023-04-08T23:58:42.207Z,36.10
